createdAt,value
2018-03-01T00:01:23.342Z,21.27
2018-03-01T00:03:50.488Z,23.20
2018-03-01T00:06:17.873Z,23.97
2018-03-01T00:08:45.008Z,24.60
2018-03-01T00:11:12.328Z,20.37
2018-03-01T00:31:56.038Z,23.43
2018-03-01T00:34:23.751Z,23.10
2018-03-01T00:36:51.004Z,25.30
2018-03-01T00:39:19.078Z,22.20
2018-03-01T00:41:46.431Z,23.77
2018-03-01T00:44:14.572Z,27.60
2018-03-01T00:46:42.916Z,25.87
2018-03-01T00:49:11.363Z,21.10
2018-03-01T00:51:39.129Z,23.87
2018-03-01T00:54:07.301Z,27.07
2018-03-01T00:56:35.246Z,22.33
2018-03-01T00:59:02.311Z,23.13
2018-03-01T01:01:30.072Z,23.70
2018-03-01T01:04:01.083Z,20.50
2018-03-01T01:06:28.542Z,20.90
2018-03-01T01:08:55.833Z,25.27
2018-03-01T01:11:23.674Z,26.50
2018-03-01T01:13:54.232Z,23.73
2018-03-01T01:16:22.300Z,25.40
2018-03-01T01:18:51.103Z,22.90
2018-03-01T01:21:18.220Z,24.53
2018-03-01T01:23:46.082Z,26.50
2018-03-01T01:26:13.152Z,25.33
2018-03-01T01:28:41.134Z,23.80
2018-03-01T01:31:08.270Z,26.40
2018-03-01T01:33:36.130Z,20.23
2018-03-01T01:36:04.108Z,25.80
2018-03-01T01:38:32.082Z,27.20
2018-03-01T01:40:59.944Z,26.30
2018-03-01T01:43:27.601Z,22.27
2018-03-01T01:45:55.694Z,23.13
2018-03-01T01:48:22.795Z,26.80
2018-03-01T01:50:50.891Z,23.50
2018-03-01T01:53:18.017Z,23.00
2018-03-01T01:55:45.405Z,25.73
2018-03-01T01:58:12.751Z,24.97
2018-03-01T02:00:40.679Z,24.23
2018-03-01T02:23:58.239Z,27.40
2018-03-01T02:26:25.447Z,27.30
2018-03-01T02:28:52.698Z,26.80
2018-03-01T02:31:19.941Z,28.03
2018-03-01T02:33:47.922Z,26.40
2018-03-01T02:36:17.150Z,26.73
2018-03-01T02:38:44.372Z,24.60
2018-03-01T02:41:11.736Z,29.50
2018-03-01T02:43:38.980Z,29.93
2018-03-01T02:46:06.929Z,26.47
2018-03-01T02:51:16.614Z,22.33
2018-03-01T02:53:44.647Z,25.50
2018-03-01T02:56:12.509Z,24.07
2018-03-01T02:58:40.659Z,23.60
2018-03-01T03:01:07.925Z,31.00
2018-03-01T03:03:35.328Z,26.13
2018-03-01T03:06:04.735Z,25.80
2018-03-01T03:08:31.783Z,24.10
2018-03-01T03:10:59.034Z,23.73
2018-03-01T03:28:54.650Z,25.20
2018-03-01T03:31:21.799Z,25.80
2018-03-01T03:33:49.675Z,25.23
2018-03-01T03:36:17.740Z,26.97
2018-03-01T03:44:03.662Z,25.20
2018-03-01T03:46:30.812Z,23.67
2018-03-01T03:48:57.859Z,31.30
2018-03-01T03:51:26.097Z,23.90
2018-03-01T03:53:54.310Z,27.13
2018-03-01T03:56:22.302Z,23.80
2018-03-01T03:58:50.760Z,29.60
2018-03-01T04:01:20.369Z,27.77
2018-03-01T04:27:18.174Z,27.57
2018-03-01T04:37:58.480Z,28.43
2018-03-01T04:40:25.657Z,28.60
2018-03-01T04:42:52.828Z,26.60
2018-03-01T04:45:22.208Z,24.57
2018-03-01T04:47:49.179Z,25.73
2018-03-01T04:50:17.459Z,25.50
2018-03-01T04:52:45.706Z,25.80
2018-03-01T04:55:13.953Z,24.13
2018-03-01T04:57:41.033Z,28.70
2018-03-01T05:00:08.999Z,28.70
2018-03-01T05:02:36.478Z,26.30
2018-03-01T05:05:03.647Z,26.90
2018-03-01T05:07:30.613Z,25.93
2018-03-01T05:21:44.986Z,29.37
2018-03-01T05:58:15.509Z,28.50
2018-03-01T06:00:44.806Z,33.93
2018-03-01T06:03:11.996Z,26.33
2018-03-01T06:05:39.936Z,28.70
2018-03-01T06:08:07.110Z,27.93
2018-03-01T06:10:34.967Z,29.43
2018-03-01T06:13:02.335Z,23.33
2018-03-01T06:23:23.603Z,28.83
2018-03-01T06:25:51.748Z,26.83
2018-03-01T06:28:19.132Z,25.00
2018-03-01T06:30:49.294Z,28.47
2018-03-01T06:37:45.085Z,25.97
2018-03-01T06:40:13.991Z,27.27
2018-03-01T06:45:24.926Z,26.93
2018-03-01T06:47:52.003Z,28.07
2018-03-01T07:07:13.266Z,27.50
2018-03-01T07:09:40.574Z,24.60
2018-03-01T07:12:10.520Z,25.60
2018-03-01T07:14:39.109Z,32.50
2018-03-01T07:17:07.659Z,26.40
2018-03-01T07:19:34.741Z,29.63
2018-03-01T07:22:01.992Z,30.57
2018-03-01T07:24:29.305Z,26.10
2018-03-01T07:26:57.188Z,30.17
2018-03-01T07:29:25.081Z,25.47
2018-03-01T07:31:52.947Z,30.00
2018-03-01T07:34:21.201Z,34.50
2018-03-01T07:36:49.199Z,26.17
2018-03-01T07:39:18.187Z,26.63
2018-03-01T07:41:45.541Z,34.60
2018-03-01T07:44:14.534Z,25.00
2018-03-01T07:46:42.606Z,28.47
2018-03-01T07:49:15.685Z,29.00
2018-03-01T07:51:42.733Z,30.40
2018-03-01T07:54:10.818Z,28.93
2018-03-01T07:56:37.965Z,33.10
2018-03-01T07:59:05.928Z,26.20
2018-03-01T08:01:33.179Z,27.30
2018-03-01T08:32:05.447Z,30.10
2018-03-01T08:34:34.089Z,30.10
2018-03-01T08:37:01.384Z,29.40
2018-03-01T08:39:29.360Z,27.70
2018-03-01T08:41:59.928Z,22.40
2018-03-01T08:44:27.330Z,28.43
2018-03-01T08:46:54.666Z,25.00
2018-03-01T08:49:21.843Z,29.93
2018-03-01T08:51:49.680Z,27.50
2018-03-01T09:15:37.077Z,27.90
2018-03-01T09:23:18.496Z,27.93
2018-03-01T09:25:46.568Z,27.10
2018-03-01T09:28:14.434Z,25.67
2018-03-01T09:30:42.608Z,26.97
2018-03-01T09:33:09.661Z,26.70
2018-03-01T09:35:41.224Z,25.70
2018-03-01T09:38:08.341Z,28.30
2018-03-01T09:43:11.158Z,25.80
2018-03-01T09:45:42.307Z,25.17
2018-03-01T09:48:16.199Z,26.40
2018-03-01T09:50:44.177Z,26.40
2018-03-01T09:53:12.091Z,25.47
2018-03-01T09:56:09.140Z,30.60
2018-03-01T09:58:45.859Z,26.30
2018-03-01T10:01:17.924Z,26.47
2018-03-01T10:03:45.159Z,24.60
2018-03-01T10:06:12.306Z,21.33
2018-03-01T10:08:39.324Z,28.07
2018-03-01T10:11:06.538Z,23.83
2018-03-01T10:13:34.495Z,24.87
2018-03-01T10:16:01.489Z,25.90
2018-03-01T10:18:30.142Z,26.30
2018-03-01T10:20:59.442Z,26.70
2018-03-01T10:23:27.379Z,25.60
2018-03-01T10:25:54.555Z,27.67
2018-03-01T10:28:22.373Z,28.03
2018-03-01T10:36:22.687Z,26.07
2018-03-01T10:49:27.877Z,27.60
2018-03-01T10:51:56.074Z,26.37
2018-03-01T10:54:23.425Z,24.60
2018-03-01T10:56:50.531Z,28.50
2018-03-01T10:59:18.503Z,27.80
2018-03-01T11:01:45.754Z,27.10
2018-03-01T11:04:14.223Z,25.87
2018-03-01T11:06:42.142Z,27.50
2018-03-01T11:09:20.341Z,24.57
2018-03-01T11:11:48.535Z,28.40
2018-03-01T11:14:15.726Z,26.50
2018-03-01T11:16:42.914Z,23.33
2018-03-01T11:19:10.165Z,22.20
2018-03-01T11:21:37.231Z,26.37
2018-03-01T11:24:06.327Z,27.70
2018-03-01T11:26:34.089Z,23.63
2018-03-01T11:29:01.189Z,25.97
2018-03-01T11:31:28.589Z,24.20
2018-03-01T11:33:56.726Z,27.57
2018-03-01T11:36:26.376Z,24.73
2018-03-01T11:38:54.219Z,23.23
2018-03-01T11:41:22.374Z,27.73
2018-03-01T12:01:54.250Z,27.40
2018-03-01T12:04:21.657Z,26.23
2018-03-01T12:06:49.390Z,21.97
2018-03-01T12:09:16.568Z,26.03
2018-03-01T12:14:22.387Z,28.53
2018-03-01T12:16:49.545Z,27.37
2018-03-01T12:19:16.612Z,26.17
2018-03-01T12:21:43.747Z,27.40
2018-03-01T12:29:27.809Z,26.77
2018-03-01T12:55:32.146Z,27.63
2018-03-01T12:57:59.395Z,25.53
2018-03-01T13:08:39.913Z,23.77
2018-03-01T13:11:15.212Z,23.60
2018-03-01T13:13:42.199Z,22.70
2018-03-01T13:16:10.069Z,24.43
2018-03-01T13:18:37.936Z,22.73
2018-03-01T13:38:37.972Z,23.90
2018-03-01T13:41:05.122Z,30.37
2018-03-01T13:43:33.127Z,24.77
2018-03-01T13:46:00.214Z,25.63
2018-03-01T13:48:27.941Z,27.10
2018-03-01T13:53:28.407Z,29.17
2018-03-01T14:02:52.557Z,28.47
2018-03-01T14:05:20.854Z,28.13
2018-03-01T14:28:33.348Z,26.43
2018-03-01T14:31:01.671Z,26.50
2018-03-01T14:33:30.547Z,23.97
2018-03-01T14:38:38.896Z,23.83
2018-03-01T14:41:07.075Z,23.80
2018-03-01T14:43:34.220Z,26.20
2018-03-01T14:46:02.090Z,33.03
2018-03-01T14:48:29.218Z,24.50
2018-03-01T14:50:56.491Z,23.63
2018-03-01T14:53:28.259Z,26.60
2018-03-01T14:55:57.904Z,24.50
2018-03-01T14:58:25.099Z,25.80
2018-03-01T15:00:52.966Z,25.30
2018-03-01T15:03:20.810Z,26.13
2018-03-01T15:05:48.815Z,27.30
2018-03-01T15:08:16.167Z,28.93
2018-03-01T15:43:22.552Z,27.60
2018-03-01T15:45:51.417Z,25.37
2018-03-01T15:48:18.931Z,26.00
2018-03-01T16:06:53.434Z,24.10
2018-03-01T16:14:59.655Z,30.33
2018-03-01T16:18:18.190Z,27.87
2018-03-01T16:21:52.854Z,19.33
2018-03-01T16:25:00.315Z,29.07
2018-03-01T16:43:05.925Z,25.90
2018-03-01T16:48:20.456Z,30.40
2018-03-01T16:50:48.781Z,33.67
2018-03-01T16:53:15.841Z,28.77
2018-03-01T16:55:43.928Z,26.87
2018-03-01T16:58:10.926Z,33.00
2018-03-01T17:00:38.624Z,30.40
2018-03-01T17:03:05.631Z,31.67
2018-03-01T17:05:33.851Z,30.53
2018-03-01T17:08:01.609Z,31.80
2018-03-01T17:10:28.625Z,29.60
2018-03-01T17:12:55.634Z,28.63
2018-03-01T17:15:22.712Z,32.93
2018-03-01T17:17:49.722Z,30.97
2018-03-01T17:20:19.309Z,32.50
2018-03-01T17:22:46.317Z,33.57
2018-03-01T17:25:13.658Z,27.93
2018-03-01T17:27:40.654Z,32.20
2018-03-01T17:30:10.830Z,32.47
2018-03-01T17:32:37.837Z,32.63
2018-03-01T17:35:08.252Z,28.30
2018-03-01T17:37:35.253Z,29.03
2018-03-01T17:40:02.257Z,30.03
2018-03-01T17:42:30.270Z,34.03
2018-03-01T17:44:57.317Z,28.53
2018-03-01T17:47:27.002Z,29.13
2018-03-01T17:49:53.994Z,32.07
2018-03-01T17:52:21.316Z,31.53
2018-03-01T17:54:48.373Z,32.73
2018-03-01T17:57:15.643Z,29.43
2018-03-01T17:59:42.647Z,27.70
2018-03-01T18:02:10.060Z,35.60
2018-03-01T18:04:37.156Z,29.23
2018-03-01T18:07:04.616Z,32.50
2018-03-01T18:09:31.611Z,31.77
2018-03-01T18:11:59.184Z,31.73
2018-03-01T18:14:26.570Z,37.77
2018-03-01T18:16:54.126Z,28.73
2018-03-01T18:19:21.898Z,32.77
2018-03-01T18:21:49.371Z,34.60
2018-03-01T18:24:16.632Z,27.87
2018-03-01T18:26:43.748Z,29.83
2018-03-01T18:29:11.512Z,39.70
2018-03-01T18:31:39.126Z,33.50
2018-03-01T18:34:06.242Z,34.17
2018-03-01T18:36:33.345Z,31.30
2018-03-01T18:39:00.437Z,35.93
2018-03-01T18:41:28.035Z,32.00
2018-03-01T18:43:55.046Z,34.30
2018-03-01T18:46:22.646Z,30.40
2018-03-01T18:48:49.683Z,27.80
2018-03-01T18:51:16.706Z,31.30
2018-03-01T18:53:43.714Z,29.27
2018-03-01T18:56:11.945Z,35.93
2018-03-01T18:58:38.962Z,26.83
2018-03-01T19:01:06.525Z,32.10
2018-03-01T19:03:33.535Z,33.53
2018-03-01T19:06:01.590Z,29.50
2018-03-01T19:08:28.605Z,31.10
2018-03-01T19:10:56.261Z,29.03
2018-03-01T19:13:23.278Z,36.50
2018-03-01T19:15:51.307Z,33.30
2018-03-01T19:18:18.320Z,32.00
2018-03-01T19:20:46.106Z,29.87
2018-03-01T19:23:13.105Z,33.63
2018-03-01T19:25:42.014Z,33.40
2018-03-01T19:28:09.278Z,29.90
2018-03-01T19:30:36.939Z,29.40
2018-03-01T19:33:03.951Z,32.87
2018-03-01T19:35:31.611Z,29.77
2018-03-01T19:37:58.808Z,29.77
2018-03-01T19:40:26.758Z,33.10
2018-03-01T19:42:54.370Z,33.70
2018-03-01T19:45:21.874Z,32.73
2018-03-01T19:47:49.757Z,31.67
2018-03-01T19:50:16.902Z,30.87
2018-03-01T19:52:43.941Z,33.80
2018-03-01T19:55:11.110Z,26.17
2018-03-01T19:57:38.144Z,36.77
2018-03-01T20:00:07.660Z,34.40
2018-03-01T20:02:35.983Z,31.97
2018-03-01T20:05:03.190Z,29.07
2018-03-01T20:07:30.222Z,33.10
2018-03-01T20:09:57.220Z,34.17
2018-03-01T20:12:25.117Z,32.70
2018-03-01T20:14:52.202Z,35.60
2018-03-01T20:17:21.008Z,37.00
2018-03-01T20:19:48.214Z,38.13
2018-03-01T20:22:15.964Z,41.57
2018-03-01T20:24:43.047Z,34.10
2018-03-01T20:27:10.284Z,33.97
2018-03-01T20:29:37.269Z,37.60
2018-03-01T20:32:04.264Z,31.83
2018-03-01T20:34:32.050Z,33.33
2018-03-01T20:36:59.854Z,37.77
2018-03-01T20:39:26.856Z,36.33
2018-03-01T20:41:54.739Z,33.43
2018-03-01T20:44:21.901Z,36.90
2018-03-01T20:46:48.911Z,35.37
2018-03-01T20:49:15.916Z,36.23
2018-03-01T20:51:43.072Z,36.13
2018-03-01T20:54:10.118Z,38.80
2018-03-01T20:56:37.137Z,35.77
2018-03-01T20:59:04.141Z,35.57
2018-03-01T21:01:31.154Z,31.80
2018-03-01T21:03:58.266Z,38.10
2018-03-01T21:06:25.285Z,34.57
2018-03-01T21:08:52.290Z,47.53
2018-03-01T21:11:19.298Z,34.63
2018-03-01T21:13:46.309Z,34.60
2018-03-01T21:16:13.310Z,40.23
2018-03-01T21:18:40.311Z,34.40
2018-03-01T21:21:07.315Z,35.57
2018-03-01T21:23:34.316Z,34.53
2018-03-01T21:26:02.094Z,34.90
2018-03-01T21:28:29.171Z,32.63
2018-03-01T21:30:56.184Z,29.63
2018-03-01T21:33:23.178Z,38.30
2018-03-01T21:35:50.180Z,33.07
2018-03-01T21:38:17.198Z,33.97
2018-03-01T21:40:44.194Z,31.57
2018-03-01T21:43:11.206Z,37.43
2018-03-01T21:45:38.295Z,38.83
2018-03-01T21:48:05.305Z,34.50
2018-03-01T21:50:32.341Z,38.33
2018-03-01T21:52:59.364Z,38.37
2018-03-01T21:55:26.482Z,34.90
2018-03-01T21:57:53.491Z,35.20
2018-03-01T22:00:20.737Z,38.00
2018-03-01T22:02:48.509Z,34.03
2018-03-01T22:05:16.301Z,31.53
2018-03-01T22:07:43.369Z,34.83
2018-03-01T22:10:10.406Z,36.33
2018-03-01T22:12:37.387Z,36.53
2018-03-01T22:15:04.494Z,33.60
2018-03-01T22:17:32.168Z,33.23
2018-03-01T22:19:59.158Z,34.17
2018-03-01T22:22:26.861Z,35.13
2018-03-01T22:24:54.135Z,32.10
2018-03-01T22:27:21.130Z,37.73
2018-03-01T22:29:48.143Z,33.20
2018-03-01T22:32:15.148Z,36.43
2018-03-01T22:34:42.320Z,33.43
2018-03-01T22:37:09.329Z,36.30
2018-03-01T22:39:36.328Z,32.37
2018-03-01T22:42:03.365Z,35.60
2018-03-01T22:44:30.538Z,30.23
2018-03-01T22:46:57.560Z,33.83
2018-03-01T22:49:24.557Z,35.40
2018-03-01T22:51:51.591Z,31.67
2018-03-01T22:54:18.690Z,36.67
2018-03-01T22:56:45.686Z,32.80
2018-03-01T22:59:14.192Z,33.30
2018-03-01T23:01:41.192Z,33.53
2018-03-01T23:04:08.318Z,31.30
2018-03-01T23:06:35.322Z,30.97
2018-03-01T23:09:02.332Z,34.63
2018-03-01T23:11:29.338Z,34.07
2018-03-01T23:13:56.504Z,35.33
2018-03-01T23:16:23.562Z,34.70
2018-03-01T23:18:50.557Z,31.00
2018-03-01T23:21:17.614Z,35.50
2018-03-01T23:23:45.384Z,36.27
2018-03-01T23:26:13.144Z,39.30
2018-03-01T23:28:40.147Z,34.60
2018-03-01T23:31:07.168Z,34.73
2018-03-01T23:33:34.186Z,36.77
2018-03-01T23:36:01.940Z,32.40
2018-03-01T23:38:28.934Z,30.37
2018-03-01T23:40:55.939Z,35.27
2018-03-01T23:43:22.929Z,35.77
2018-03-01T23:45:49.927Z,34.57
2018-03-01T23:48:16.921Z,35.30
2018-03-01T23:50:43.932Z,33.77
2018-03-01T23:53:10.942Z,35.20
2018-03-01T23:55:37.962Z,32.47
2018-03-01T23:58:04.969Z,36.23
